sensor_id;sensor_type;location;lat;lon;timestamp;temperature;humidity
1091;DHT22;534;48.704;9.122;2023-09-08T04:02:00;19.40;76.70
1091;DHT22;534;48.704;9.122;2023-09-08T04:04:27;19.40;76.60
1091;DHT22;534;48.704;9.122;2023-09-08T04:06:54;19.40;76.60
1091;DHT22;534;48.704;9.122;2023-09-08T04:09:21;19.30;76.70
1091;DHT22;534;48.704;9.122;2023-09-08T04:11:47;19.30;76.70
1091;DHT22;534;48.704;9.122;2023-09-08T04:14:14;19.30;76.60
1091;DHT22;534;48.704;9.122;2023-09-08T04:16:40;19.30;76.70
1091;DHT22;534;48.704;9.122;2023-09-08T04:19:08;19.30;76.70
1091;DHT22;534;48.704;9.122;2023-09-08T04:21:35;19.30;76.60
1091;DHT22;534;48.704;9.122;2023-09-08T04:24:03;19.30;76.70
1091;DHT22;534;48.704;9.122;2023-09-08T04:26:30;19.30;76.50
1091;DHT22;534;48.704;9.122;2023-09-08T04:28:57;19.30;76.70
1091;DHT22;534;48.704;9.122;2023-09-08T04:31:23;19.30;76.70
1091;DHT22;534;48.704;9.122;2023-09-08T04:33:50;19.30;76.70
1091;DHT22;534;48.704;9.122;2023-09-08T04:36:20;19.30;76.70
1091;DHT22;534;48.704;9.122;2023-09-08T04:38:46;19.30;76.60
1091;DHT22;534;48.704;9.122;2023-09-08T04:41:13;19.30;76.60
1091;DHT22;534;48.704;9.122;2023-09-08T04:43:39;19.30;76.90
1091;DHT22;534;48.704;9.122;2023-09-08T04:46:06;19.30;76.80
1091;DHT22;534;48.704;9.122;2023-09-08T04:48:34;19.30;76.70
1091;DHT22;534;48.704;9.122;2023-09-08T04:51:00;19.30;76.80
1091;DHT22;534;48.704;9.122;2023-09-08T04:53:28;19.30;76.90
1091;DHT22;534;48.704;9.122;2023-09-08T04:55:55;19.30;76.90
1091;DHT22;534;48.704;9.122;2023-09-08T04:58:22;19.20;77.00
1091;DHT22;534;48.704;9.122;2023-09-08T05:00:48;19.20;76.90
1091;DHT22;534;48.704;9.122;2023-09-08T05:03:15;19.30;76.90
1091;DHT22;534;48.704;9.122;2023-09-08T05:05:42;19.30;77.00
1091;DHT22;534;48.704;9.122;2023-09-08T05:08:08;19.30;77.00
1091;DHT22;534;48.704;9.122;2023-09-08T05:10:36;19.40;77.00
1091;DHT22;534;48.704;9.122;2023-09-08T05:13:03;19.40;77.00
1091;DHT22;534;48.704;9.122;2023-09-08T05:15:30;19.50;76.90
1091;DHT22;534;48.704;9.122;2023-09-08T05:17:57;19.50;76.70
1091;DHT22;534;48.704;9.122;2023-09-08T05:20:23;19.60;76.50
1091;DHT22;534;48.704;9.122;2023-09-08T05:22:50;19.70;76.40
1091;DHT22;534;48.704;9.122;2023-09-08T05:25:17;19.80;76.20
1091;DHT22;534;48.704;9.122;2023-09-08T05:27:45;19.90;76.00
1091;DHT22;534;48.704;9.122;2023-09-08T05:30:12;20.00;75.70
1091;DHT22;534;48.704;9.122;2023-09-08T05:32:39;20.20;75.40
1091;DHT22;534;48.704;9.122;2023-09-08T05:35:06;20.30;75.10
1091;DHT22;534;48.704;9.122;2023-09-08T05:37:33;20.40;75.10
1091;DHT22;534;48.704;9.122;2023-09-08T05:39:59;20.50;74.90
1091;DHT22;534;48.704;9.122;2023-09-08T05:42:26;20.70;74.60
1091;DHT22;534;48.704;9.122;2023-09-08T05:44:54;20.80;74.10
1091;DHT22;534;48.704;9.122;2023-09-08T05:47:21;21.00;73.80
1091;DHT22;534;48.704;9.122;2023-09-08T05:49:47;21.10;73.90
1091;DHT22;534;48.704;9.122;2023-09-08T05:52:14;21.30;74.30
1091;DHT22;534;48.704;9.122;2023-09-08T05:54:41;21.80;73.30
1091;DHT22;534;48.704;9.122;2023-09-08T05:57:07;22.50;72.40
1091;DHT22;534;48.704;9.122;2023-09-08T05:59:34;23.40;69.90
1091;DHT22;534;48.704;9.122;2023-09-08T06:02:02;24.50;67.40
1091;DHT22;534;48.704;9.122;2023-09-08T06:04:29;25.50;64.40
1091;DHT22;534;48.704;9.122;2023-09-08T06:06:57;26.00;62.50
1091;DHT22;534;48.704;9.122;2023-09-08T06:09:24;26.10;62.00
1091;DHT22;534;48.704;9.122;2023-09-08T06:11:50;26.10;61.80
1091;DHT22;534;48.704;9.122;2023-09-08T06:14:17;26.20;61.30
1091;DHT22;534;48.704;9.122;2023-09-08T06:16:44;26.20;62.30
1091;DHT22;534;48.704;9.122;2023-09-08T06:19:13;27.00;60.90
1091;DHT22;534;48.704;9.122;2023-09-08T06:21:40;27.70;59.00
1091;DHT22;534;48.704;9.122;2023-09-08T06:24:07;28.20;58.30
1091;DHT22;534;48.704;9.122;2023-09-08T06:26:34;28.50;57.40
1091;DHT22;534;48.704;9.122;2023-09-08T06:29:01;28.40;57.70
1091;DHT22;534;48.704;9.122;2023-09-08T06:31:27;28.70;57.40
1091;DHT22;534;48.704;9.122;2023-09-08T06:33:54;28.70;57.20
1091;DHT22;534;48.704;9.122;2023-09-08T06:36:22;28.50;57.40
1091;DHT22;534;48.704;9.122;2023-09-08T06:38:49;27.90;58.90
1091;DHT22;534;48.704;9.122;2023-09-08T06:41:15;27.60;59.30
1091;DHT22;534;48.704;9.122;2023-09-08T06:43:43;27.20;60.40
1091;DHT22;534;48.704;9.122;2023-09-08T06:46:10;27.40;60.50
1091;DHT22;534;48.704;9.122;2023-09-08T06:48:37;27.20;60.60
1091;DHT22;534;48.704;9.122;2023-09-08T06:51:03;28.30;59.40
1091;DHT22;534;48.704;9.122;2023-09-08T06:53:31;28.60;58.00
1091;DHT22;534;48.704;9.122;2023-09-08T06:55:58;29.50;56.50
1091;DHT22;534;48.704;9.122;2023-09-08T06:58:25;30.30;55.00
1091;DHT22;534;48.704;9.122;2023-09-08T07:00:53;31.10;53.00
1091;DHT22;534;48.704;9.122;2023-09-08T07:03:19;30.50;54.10
1091;DHT22;534;48.704;9.122;2023-09-08T07:05:47;30.10;55.60
1091;DHT22;534;48.704;9.122;2023-09-08T07:08:14;29.70;56.60
1091;DHT22;534;48.704;9.122;2023-09-08T07:10:43;29.60;56.50
1091;DHT22;534;48.704;9.122;2023-09-08T07:13:09;29.20;57.10
1091;DHT22;534;48.704;9.122;2023-09-08T07:15:36;28.00;60.30
1091;DHT22;534;48.704;9.122;2023-09-08T07:18:04;27.30;62.00
1091;DHT22;534;48.704;9.122;2023-09-08T07:20:30;26.50;63.80
1091;DHT22;534;48.704;9.122;2023-09-08T07:22:57;25.90;65.60
1091;DHT22;534;48.704;9.122;2023-09-08T07:25:24;25.50;66.50
1091;DHT22;534;48.704;9.122;2023-09-08T07:27:52;25.20;67.30
1091;DHT22;534;48.704;9.122;2023-09-08T07:30:19;24.80;68.50
1091;DHT22;534;48.704;9.122;2023-09-08T07:32:45;24.60;68.90
1091;DHT22;534;48.704;9.122;2023-09-08T07:35:12;24.40;70.30
1091;DHT22;534;48.704;9.122;2023-09-08T07:37:42;24.40;70.70
1091;DHT22;534;48.704;9.122;2023-09-08T07:40:10;24.70;69.90
1091;DHT22;534;48.704;9.122;2023-09-08T07:42:36;25.00;68.90
1091;DHT22;534;48.704;9.122;2023-09-08T07:45:05;25.20;68.40
1091;DHT22;534;48.704;9.122;2023-09-08T07:47:35;25.10;68.60
1091;DHT22;534;48.704;9.122;2023-09-08T07:50:17;25.10;69.30
1091;DHT22;534;48.704;9.122;2023-09-08T07:52:44;25.20;68.50
1091;DHT22;534;48.704;9.122;2023-09-08T07:55:11;25.50;67.30
1091;DHT22;534;48.704;9.122;2023-09-08T07:57:38;25.50;67.50
1091;DHT22;534;48.704;9.122;2023-09-08T08:00:07;25.70;68.00
1091;DHT22;534;48.704;9.122;2023-09-08T08:02:36;25.70;67.90
1091;DHT22;534;48.704;9.122;2023-09-08T08:05:03;25.90;67.30
1091;DHT22;534;48.704;9.122;2023-09-08T08:07:29;26.20;66.70
1091;DHT22;534;48.704;9.122;2023-09-08T08:09:57;26.20;66.10
1091;DHT22;534;48.704;9.122;2023-09-08T08:12:24;26.30;67.20
1091;DHT22;534;48.704;9.122;2023-09-08T08:14:51;26.20;68.10
1091;DHT22;534;48.704;9.122;2023-09-08T08:17:19;26.30;67.60
1091;DHT22;534;48.704;9.122;2023-09-08T08:19:45;26.50;67.10
1091;DHT22;534;48.704;9.122;2023-09-08T08:22:12;26.60;66.80
1091;DHT22;534;48.704;9.122;2023-09-08T08:24:39;26.50;66.40
1091;DHT22;534;48.704;9.122;2023-09-08T08:27:06;26.20;67.30
1091;DHT22;534;48.704;9.122;2023-09-08T08:29:32;25.90;68.20
1091;DHT22;534;48.704;9.122;2023-09-08T08:31:59;26.00;68.30
1091;DHT22;534;48.704;9.122;2023-09-08T08:34:27;26.30;68.20
1091;DHT22;534;48.704;9.122;2023-09-08T08:36:53;26.60;66.70
1091;DHT22;534;48.704;9.122;2023-09-08T08:39:20;26.60;67.30
1091;DHT22;534;48.704;9.122;2023-09-08T08:41:47;26.50;67.70
1091;DHT22;534;48.704;9.122;2023-09-08T08:44:15;26.70;65.60
1091;DHT22;534;48.704;9.122;2023-09-08T08:46:45;26.40;67.20
1091;DHT22;534;48.704;9.122;2023-09-08T08:49:15;26.50;65.40
1091;DHT22;534;48.704;9.122;2023-09-08T08:51:44;26.40;65.60
1091;DHT22;534;48.704;9.122;2023-09-08T08:54:12;26.40;67.30
1091;DHT22;534;48.704;9.122;2023-09-08T08:56:40;26.40;66.90
1091;DHT22;534;48.704;9.122;2023-09-08T08:59:07;26.40;67.80
1091;DHT22;534;48.704;9.122;2023-09-08T09:01:35;26.40;67.60
1091;DHT22;534;48.704;9.122;2023-09-08T09:04:05;26.40;67.00
1091;DHT22;534;48.704;9.122;2023-09-08T09:06:32;26.30;67.20
1091;DHT22;534;48.704;9.122;2023-09-08T09:09:00;26.60;66.40
1091;DHT22;534;48.704;9.122;2023-09-08T09:11:27;26.40;67.50
1091;DHT22;534;48.704;9.122;2023-09-08T09:13:54;26.30;67.20
1091;DHT22;534;48.704;9.122;2023-09-08T09:16:20;26.20;68.00
1091;DHT22;534;48.704;9.122;2023-09-08T09:18:54;26.10;67.90
1091;DHT22;534;48.704;9.122;2023-09-08T09:21:21;26.20;67.80
1091;DHT22;534;48.704;9.122;2023-09-08T09:23:48;26.10;67.30
1091;DHT22;534;48.704;9.122;2023-09-08T09:26:25;26.20;67.30
1091;DHT22;534;48.704;9.122;2023-09-08T09:28:52;25.90;67.90
1091;DHT22;534;48.704;9.122;2023-09-08T09:31:23;26.00;68.10
1091;DHT22;534;48.704;9.122;2023-09-08T09:34:01;26.00;67.90
1091;DHT22;534;48.704;9.122;2023-09-08T09:36:28;25.90;68.10
1091;DHT22;534;48.704;9.122;2023-09-08T09:38:58;26.10;67.60
1091;DHT22;534;48.704;9.122;2023-09-08T09:41:27;26.30;68.40
1091;DHT22;534;48.704;9.122;2023-09-08T09:43:54;26.30;68.30
1091;DHT22;534;48.704;9.122;2023-09-08T09:46:21;26.40;67.30
1091;DHT22;534;48.704;9.122;2023-09-08T09:48:51;26.20;67.60
1091;DHT22;534;48.704;9.122;2023-09-08T09:51:19;26.30;68.50
1091;DHT22;534;48.704;9.122;2023-09-08T09:53:45;26.30;67.30
1091;DHT22;534;48.704;9.122;2023-09-08T09:56:13;26.40;68.20
1091;DHT22;534;48.704;9.122;2023-09-08T09:58:42;26.40;68.30
1091;DHT22;534;48.704;9.122;2023-09-08T10:01:11;26.60;67.10
1091;DHT22;534;48.704;9.122;2023-09-08T10:03:38;26.60;67.50
1091;DHT22;534;48.704;9.122;2023-09-08T10:06:06;26.80;67.00
1091;DHT22;534;48.704;9.122;2023-09-08T10:08:34;26.70;67.40
1091;DHT22;534;48.704;9.122;2023-09-08T10:11:06;26.50;67.10
1091;DHT22;534;48.704;9.122;2023-09-08T10:13:39;26.70;67.70
1091;DHT22;534;48.704;9.122;2023-09-08T10:16:08;26.90;67.00
1091;DHT22;534;48.704;9.122;2023-09-08T10:18:39;27.00;67.20
1091;DHT22;534;48.704;9.122;2023-09-08T10:21:08;27.00;66.90
1091;DHT22;534;48.704;9.122;2023-09-08T10:23:38;27.30;66.60
1091;DHT22;534;48.704;9.122;2023-09-08T10:26:10;27.30;65.60
1091;DHT22;534;48.704;9.122;2023-09-08T10:28:37;27.20;65.20
1091;DHT22;534;48.704;9.122;2023-09-08T10:31:04;27.40;66.30
1091;DHT22;534;48.704;9.122;2023-09-08T10:33:34;27.70;65.50
1091;DHT22;534;48.704;9.122;2023-09-08T10:36:02;27.60;64.90
1091;DHT22;534;48.704;9.122;2023-09-08T10:38:32;27.80;66.00
1091;DHT22;534;48.704;9.122;2023-09-08T10:41:26;27.80;64.80
1091;DHT22;534;48.704;9.122;2023-09-08T10:43:58;27.80;65.40
1091;DHT22;534;48.704;9.122;2023-09-08T10:46:28;27.80;64.30
1091;DHT22;534;48.704;9.122;2023-09-08T10:49:01;28.10;65.00
1091;DHT22;534;48.704;9.122;2023-09-08T10:51:29;28.00;64.70
1091;DHT22;534;48.704;9.122;2023-09-08T10:53:56;27.90;65.60
1091;DHT22;534;48.704;9.122;2023-09-08T10:56:27;27.90;65.20
1091;DHT22;534;48.704;9.122;2023-09-08T10:58:54;27.80;64.70
1091;DHT22;534;48.704;9.122;2023-09-08T11:01:21;27.90;65.10
1091;DHT22;534;48.704;9.122;2023-09-08T11:03:52;27.90;65.50
1091;DHT22;534;48.704;9.122;2023-09-08T11:06:20;28.30;64.10
1091;DHT22;534;48.704;9.122;2023-09-08T11:08:49;28.60;64.20
1091;DHT22;534;48.704;9.122;2023-09-08T11:11:18;28.90;62.60
1091;DHT22;534;48.704;9.122;2023-09-08T11:13:45;29.30;61.70
1091;DHT22;534;48.704;9.122;2023-09-08T11:16:13;29.40;62.70
1091;DHT22;534;48.704;9.122;2023-09-08T11:18:40;29.60;61.50
1091;DHT22;534;48.704;9.122;2023-09-08T11:21:09;29.70;61.10
1091;DHT22;534;48.704;9.122;2023-09-08T11:23:38;29.50;61.60
1091;DHT22;534;48.704;9.122;2023-09-08T11:26:05;29.10;60.90
1091;DHT22;534;48.704;9.122;2023-09-08T11:28:34;29.10;61.50
1091;DHT22;534;48.704;9.122;2023-09-08T11:31:01;29.20;60.80
1091;DHT22;534;48.704;9.122;2023-09-08T11:33:33;29.20;61.90
1091;DHT22;534;48.704;9.122;2023-09-08T11:36:11;29.50;61.00
1091;DHT22;534;48.704;9.122;2023-09-08T11:38:42;29.80;61.60
1091;DHT22;534;48.704;9.122;2023-09-08T11:41:09;29.90;60.20
1091;DHT22;534;48.704;9.122;2023-09-08T11:43:36;30.20;59.90
1091;DHT22;534;48.704;9.122;2023-09-08T11:46:03;30.60;59.50
1091;DHT22;534;48.704;9.122;2023-09-08T11:48:31;30.90;58.50
1091;DHT22;534;48.704;9.122;2023-09-08T11:50:58;31.10;58.90
1091;DHT22;534;48.704;9.122;2023-09-08T11:53:25;31.30;57.40
1091;DHT22;534;48.704;9.122;2023-09-08T11:55:54;31.10;57.60
1091;DHT22;534;48.704;9.122;2023-09-08T11:58:21;31.20;58.00
1091;DHT22;534;48.704;9.122;2023-09-08T12:00:48;31.40;57.80
1091;DHT22;534;48.704;9.122;2023-09-08T12:03:16;30.80;58.50
1091;DHT22;534;48.704;9.122;2023-09-08T12:05:44;30.90;59.60
1091;DHT22;534;48.704;9.122;2023-09-08T12:08:11;31.10;57.90
1091;DHT22;534;48.704;9.122;2023-09-08T12:10:38;31.20;58.40
1091;DHT22;534;48.704;9.122;2023-09-08T12:13:06;31.50;57.00
1091;DHT22;534;48.704;9.122;2023-09-08T12:15:35;31.70;56.70
1091;DHT22;534;48.704;9.122;2023-09-08T12:18:03;31.80;56.30
1091;DHT22;534;48.704;9.122;2023-09-08T12:20:30;31.90;55.50
1091;DHT22;534;48.704;9.122;2023-09-08T12:22:59;32.10;55.40
1091;DHT22;534;48.704;9.122;2023-09-08T12:25:26;32.30;55.20
1091;DHT22;534;48.704;9.122;2023-09-08T12:27:56;32.30;55.10
1091;DHT22;534;48.704;9.122;2023-09-08T12:30:25;32.10;55.40
1091;DHT22;534;48.704;9.122;2023-09-08T12:32:56;31.70;55.80
1091;DHT22;534;48.704;9.122;2023-09-08T12:35:23;31.40;57.00
1091;DHT22;534;48.704;9.122;2023-09-08T12:37:54;31.20;56.40
1091;DHT22;534;48.704;9.122;2023-09-08T12:40:23;31.10;57.50
1091;DHT22;534;48.704;9.122;2023-09-08T12:42:49;30.90;56.50
1091;DHT22;534;48.704;9.122;2023-09-08T12:45:17;30.70;57.50
1091;DHT22;534;48.704;9.122;2023-09-08T12:47:45;30.70;57.60
1091;DHT22;534;48.704;9.122;2023-09-08T12:50:12;30.90;57.50
1091;DHT22;534;48.704;9.122;2023-09-08T12:52:39;31.10;56.10
1091;DHT22;534;48.704;9.122;2023-09-08T12:55:06;31.30;57.30
1091;DHT22;534;48.704;9.122;2023-09-08T12:57:33;31.40;57.40
1091;DHT22;534;48.704;9.122;2023-09-08T13:00:00;31.80;55.70
1091;DHT22;534;48.704;9.122;2023-09-08T13:02:27;31.70;55.20
1091;DHT22;534;48.704;9.122;2023-09-08T13:04:55;31.80;55.90
1091;DHT22;534;48.704;9.122;2023-09-08T13:07:23;32.10;54.90
1091;DHT22;534;48.704;9.122;2023-09-08T13:09:50;32.30;54.00
1091;DHT22;534;48.704;9.122;2023-09-08T13:12:17;32.40;54.70
1091;DHT22;534;48.704;9.122;2023-09-08T13:14:43;32.60;54.00
1091;DHT22;534;48.704;9.122;2023-09-08T13:17:10;32.80;54.30
1091;DHT22;534;48.704;9.122;2023-09-08T13:19:37;33.00;52.30
1091;DHT22;534;48.704;9.122;2023-09-08T13:22:06;33.00;53.00
1091;DHT22;534;48.704;9.122;2023-09-08T13:24:33;33.30;52.60
1091;DHT22;534;48.704;9.122;2023-09-08T13:27:00;33.60;51.00
1091;DHT22;534;48.704;9.122;2023-09-08T13:29:27;33.50;52.30
1091;DHT22;534;48.704;9.122;2023-09-08T13:31:54;33.50;51.60
1091;DHT22;534;48.704;9.122;2023-09-08T13:34:22;33.70;50.70
1091;DHT22;534;48.704;9.122;2023-09-08T13:36:49;33.80;50.90
1091;DHT22;534;48.704;9.122;2023-09-08T13:39:17;33.90;51.20
1091;DHT22;534;48.704;9.122;2023-09-08T13:41:46;33.70;50.80
1091;DHT22;534;48.704;9.122;2023-09-08T13:44:13;33.80;50.70
1091;DHT22;534;48.704;9.122;2023-09-08T13:46:40;33.60;50.90
1091;DHT22;534;48.704;9.122;2023-09-08T13:49:06;33.70;50.00
1091;DHT22;534;48.704;9.122;2023-09-08T13:51:33;33.60;51.10
1091;DHT22;534;48.704;9.122;2023-09-08T13:54:01;33.60;50.50
1091;DHT22;534;48.704;9.122;2023-09-08T13:56:29;33.70;50.80
1091;DHT22;534;48.704;9.122;2023-09-08T13:58:56;33.90;50.00
1091;DHT22;534;48.704;9.122;2023-09-08T14:01:22;34.10;50.40
1091;DHT22;534;48.704;9.122;2023-09-08T14:03:50;34.20;49.20
1091;DHT22;534;48.704;9.122;2023-09-08T14:06:17;34.40;48.70
1091;DHT22;534;48.704;9.122;2023-09-08T14:08:44;34.70;49.50
1091;DHT22;534;48.704;9.122;2023-09-08T14:11:11;34.70;47.70
1091;DHT22;534;48.704;9.122;2023-09-08T14:13:39;34.90;48.50
1091;DHT22;534;48.704;9.122;2023-09-08T14:16:06;34.90;46.90
1091;DHT22;534;48.704;9.122;2023-09-08T14:18:33;35.10;47.00
1091;DHT22;534;48.704;9.122;2023-09-08T14:21:00;35.30;47.00
1091;DHT22;534;48.704;9.122;2023-09-08T14:23:26;35.50;45.60
1091;DHT22;534;48.704;9.122;2023-09-08T14:25:54;35.80;46.20
1091;DHT22;534;48.704;9.122;2023-09-08T14:28:21;36.20;44.80
1091;DHT22;534;48.704;9.122;2023-09-08T14:30:50;36.60;44.60
1091;DHT22;534;48.704;9.122;2023-09-08T14:33:17;37.20;43.50
1091;DHT22;534;48.704;9.122;2023-09-08T14:35:44;37.70;42.50
1091;DHT22;534;48.704;9.122;2023-09-08T14:38:16;38.90;41.20
1091;DHT22;534;48.704;9.122;2023-09-08T14:40:43;39.60;39.70
1091;DHT22;534;48.704;9.122;2023-09-08T14:43:10;39.90;38.80
1091;DHT22;534;48.704;9.122;2023-09-08T14:45:36;40.50;38.20
1091;DHT22;534;48.704;9.122;2023-09-08T14:48:05;41.90;37.20
1091;DHT22;534;48.704;9.122;2023-09-08T14:50:33;42.90;35.30
1091;DHT22;534;48.704;9.122;2023-09-08T14:53:00;43.10;35.20
1091;DHT22;534;48.704;9.122;2023-09-08T14:55:26;44.10;34.70
1091;DHT22;534;48.704;9.122;2023-09-08T14:57:53;44.70;33.20
1091;DHT22;534;48.704;9.122;2023-09-08T15:00:21;44.50;33.60
1091;DHT22;534;48.704;9.122;2023-09-08T15:02:47;44.90;32.90
1091;DHT22;534;48.704;9.122;2023-09-08T15:05:15;45.30;32.60
1091;DHT22;534;48.704;9.122;2023-09-08T15:07:42;45.20;32.30
1091;DHT22;534;48.704;9.122;2023-09-08T15:10:09;44.10;33.60
1091;DHT22;534;48.704;9.122;2023-09-08T15:12:36;43.70;34.10
1091;DHT22;534;48.704;9.122;2023-09-08T15:15:03;44.10;34.10
1091;DHT22;534;48.704;9.122;2023-09-08T15:17:30;44.90;33.30
1091;DHT22;534;48.704;9.122;2023-09-08T15:19:57;45.10;32.90
1091;DHT22;534;48.704;9.122;2023-09-08T15:22:26;45.70;32.70
1091;DHT22;534;48.704;9.122;2023-09-08T15:24:53;44.90;32.70
1091;DHT22;534;48.704;9.122;2023-09-08T15:27:20;44.80;32.90
1091;DHT22;534;48.704;9.122;2023-09-08T15:29:46;42.90;34.30
1091;DHT22;534;48.704;9.122;2023-09-08T15:32:13;41.40;36.70
1091;DHT22;534;48.704;9.122;2023-09-08T15:34:40;39.90;38.50
1091;DHT22;534;48.704;9.122;2023-09-08T15:37:08;38.60;39.40
1091;DHT22;534;48.704;9.122;2023-09-08T15:39:36;36.80;41.30
1091;DHT22;534;48.704;9.122;2023-09-08T15:42:03;35.80;42.70
1091;DHT22;534;48.704;9.122;2023-09-08T15:44:30;34.80;44.60
1091;DHT22;534;48.704;9.122;2023-09-08T15:46:56;34.20;45.30
1091;DHT22;534;48.704;9.122;2023-09-08T15:49:23;33.70;46.30
1091;DHT22;534;48.704;9.122;2023-09-08T15:51:50;33.40;46.70
1091;DHT22;534;48.704;9.122;2023-09-08T15:54:16;32.90;47.90
1091;DHT22;534;48.704;9.122;2023-09-08T15:56:44;32.40;48.30
1091;DHT22;534;48.704;9.122;2023-09-08T15:59:11;32.00;49.20
1091;DHT22;534;48.704;9.122;2023-09-08T16:01:38;31.70;50.40
1091;DHT22;534;48.704;9.122;2023-09-08T16:04:04;31.50;50.60
1091;DHT22;534;48.704;9.122;2023-09-08T16:06:34;31.40;50.40
1091;DHT22;534;48.704;9.122;2023-09-08T16:09:01;31.10;51.10
1091;DHT22;534;48.704;9.122;2023-09-08T16:11:29;31.10;51.20
1091;DHT22;534;48.704;9.122;2023-09-08T16:13:57;30.90;51.20
1091;DHT22;534;48.704;9.122;2023-09-08T16:16:24;30.60;52.30
1091;DHT22;534;48.704;9.122;2023-09-08T16:18:51;30.50;52.50
1091;DHT22;534;48.704;9.122;2023-09-08T16:21:18;30.40;51.90
1091;DHT22;534;48.704;9.122;2023-09-08T16:23:45;30.20;52.20
1091;DHT22;534;48.704;9.122;2023-09-08T16:26:12;30.20;52.00
1091;DHT22;534;48.704;9.122;2023-09-08T16:28:38;30.20;52.60
1091;DHT22;534;48.704;9.122;2023-09-08T16:31:07;30.30;52.70
1091;DHT22;534;48.704;9.122;2023-09-08T16:33:34;30.30;52.90
1091;DHT22;534;48.704;9.122;2023-09-08T16:36:00;30.40;53.00
1091;DHT22;534;48.704;9.122;2023-09-08T16:38:27;30.30;53.10
1091;DHT22;534;48.704;9.122;2023-09-08T16:40:54;30.20;53.40
1091;DHT22;534;48.704;9.122;2023-09-08T16:43:23;30.10;53.30
1091;DHT22;534;48.704;9.122;2023-09-08T16:45:49;30.00;53.90
1091;DHT22;534;48.704;9.122;2023-09-08T16:48:17;29.90;54.00
1091;DHT22;534;48.704;9.122;2023-09-08T16:50:44;29.90;54.60
1091;DHT22;534;48.704;9.122;2023-09-08T16:53:11;30.10;54.60
1091;DHT22;534;48.704;9.122;2023-09-08T16:55:37;30.00;54.00
1091;DHT22;534;48.704;9.122;2023-09-08T16:58:05;30.00;54.10
1091;DHT22;534;48.704;9.122;2023-09-08T17:00:31;30.00;53.90
1091;DHT22;534;48.704;9.122;2023-09-08T17:02:58;29.90;54.20
1091;DHT22;534;48.704;9.122;2023-09-08T17:05:26;30.00;54.90
1091;DHT22;534;48.704;9.122;2023-09-08T17:07:53;30.00;55.30
1091;DHT22;534;48.704;9.122;2023-09-08T17:10:21;30.00;55.10
1091;DHT22;534;48.704;9.122;2023-09-08T17:12:48;30.00;55.70
1091;DHT22;534;48.704;9.122;2023-09-08T17:15:24;29.90;55.90
1091;DHT22;534;48.704;9.122;2023-09-08T17:17:51;29.90;56.60
1091;DHT22;534;48.704;9.122;2023-09-08T17:20:17;29.90;56.80
1091;DHT22;534;48.704;9.122;2023-09-08T17:22:45;29.80;57.20
1091;DHT22;534;48.704;9.122;2023-09-08T17:25:12;29.70;57.70
1091;DHT22;534;48.704;9.122;2023-09-08T17:27:41;29.60;57.90
1091;DHT22;534;48.704;9.122;2023-09-08T17:30:09;29.50;58.20
1091;DHT22;534;48.704;9.122;2023-09-08T17:32:36;29.40;58.60
1091;DHT22;534;48.704;9.122;2023-09-08T17:35:03;29.40;59.00
1091;DHT22;534;48.704;9.122;2023-09-08T17:37:30;29.20;59.40
1091;DHT22;534;48.704;9.122;2023-09-08T17:39:58;29.20;59.60
1091;DHT22;534;48.704;9.122;2023-09-08T17:42:24;29.10;59.70
1091;DHT22;534;48.704;9.122;2023-09-08T17:44:51;29.00;60.20
1091;DHT22;534;48.704;9.122;2023-09-08T17:47:31;28.80;59.50
1091;DHT22;534;48.704;9.122;2023-09-08T17:49:58;28.70;60.30
1091;DHT22;534;48.704;9.122;2023-09-08T17:52:25;28.60;60.00
1091;DHT22;534;48.704;9.122;2023-09-08T17:54:52;28.50;60.50
1091;DHT22;534;48.704;9.122;2023-09-08T17:57:20;28.40;61.10
1091;DHT22;534;48.704;9.122;2023-09-08T17:59:46;28.30;61.20
1091;DHT22;534;48.704;9.122;2023-09-08T18:02:13;28.20;61.20
1091;DHT22;534;48.704;9.122;2023-09-08T18:04:40;28.20;61.20
1091;DHT22;534;48.704;9.122;2023-09-08T18:07:07;28.10;61.50
1091;DHT22;534;48.704;9.122;2023-09-08T18:09:34;28.10;61.70
1091;DHT22;534;48.704;9.122;2023-09-08T18:12:01;28.00;62.10
1091;DHT22;534;48.704;9.122;2023-09-08T18:14:29;28.00;62.20
1091;DHT22;534;48.704;9.122;2023-09-08T18:16:56;27.90;62.30
1091;DHT22;534;48.704;9.122;2023-09-08T18:19:23;27.70;62.70
1091;DHT22;534;48.704;9.122;2023-09-08T18:21:49;27.70;62.70
1091;DHT22;534;48.704;9.122;2023-09-08T18:24:16;27.60;63.10
1091;DHT22;534;48.704;9.122;2023-09-08T18:26:43;27.50;62.80
1091;DHT22;534;48.704;9.122;2023-09-08T18:29:09;27.40;62.90
1091;DHT22;534;48.704;9.122;2023-09-08T18:31:37;27.40;63.10
1091;DHT22;534;48.704;9.122;2023-09-08T18:34:06;27.30;63.10
1091;DHT22;534;48.704;9.122;2023-09-08T18:36:34;27.30;63.10
1091;DHT22;534;48.704;9.122;2023-09-08T18:39:00;27.20;63.30
1091;DHT22;534;48.704;9.122;2023-09-08T18:41:27;27.10;63.40
1091;DHT22;534;48.704;9.122;2023-09-08T18:43:54;27.10;63.60
1091;DHT22;534;48.704;9.122;2023-09-08T18:46:21;27.10;63.40
1091;DHT22;534;48.704;9.122;2023-09-08T18:48:49;27.10;63.10
1091;DHT22;534;48.704;9.122;2023-09-08T18:51:16;27.00;63.60
1091;DHT22;534;48.704;9.122;2023-09-08T18:53:42;27.00;63.90
1091;DHT22;534;48.704;9.122;2023-09-08T18:56:09;27.00;63.60
1091;DHT22;534;48.704;9.122;2023-09-08T18:58:36;26.90;63.70
1091;DHT22;534;48.704;9.122;2023-09-08T19:01:03;26.90;63.90
1091;DHT22;534;48.704;9.122;2023-09-08T19:03:30;26.90;63.90
1091;DHT22;534;48.704;9.122;2023-09-08T19:05:58;26.90;64.00
1091;DHT22;534;48.704;9.122;2023-09-08T19:08:25;26.80;64.10
1091;DHT22;534;48.704;9.122;2023-09-08T19:10:52;26.70;64.30
1091;DHT22;534;48.704;9.122;2023-09-08T19:13:18;26.70;64.30
1091;DHT22;534;48.704;9.122;2023-09-08T19:15:46;26.70;64.20
1091;DHT22;534;48.704;9.122;2023-09-08T19:18:13;26.60;64.30
1091;DHT22;534;48.704;9.122;2023-09-08T19:20:41;26.60;64.40
1091;DHT22;534;48.704;9.122;2023-09-08T19:23:09;26.60;64.70
1091;DHT22;534;48.704;9.122;2023-09-08T19:25:36;26.50;64.80
1091;DHT22;534;48.704;9.122;2023-09-08T19:28:03;26.40;65.00
1091;DHT22;534;48.704;9.122;2023-09-08T19:30:30;26.40;65.00
1091;DHT22;534;48.704;9.122;2023-09-08T19:32:57;26.40;65.10
1091;DHT22;534;48.704;9.122;2023-09-08T19:35:23;26.40;65.20
1091;DHT22;534;48.704;9.122;2023-09-08T19:37:51;26.30;65.40
1091;DHT22;534;48.704;9.122;2023-09-08T19:40:19;26.30;65.40
1091;DHT22;534;48.704;9.122;2023-09-08T19:42:46;26.30;65.30
1091;DHT22;534;48.704;9.122;2023-09-08T19:45:14;26.20;65.40
1091;DHT22;534;48.704;9.122;2023-09-08T19:47:41;26.20;65.60
1091;DHT22;534;48.704;9.122;2023-09-08T19:50:08;26.20;65.60
1091;DHT22;534;48.704;9.122;2023-09-08T19:52:35;26.10;66.20
1091;DHT22;534;48.704;9.122;2023-09-08T19:55:05;26.10;66.40
1091;DHT22;534;48.704;9.122;2023-09-08T19:57:34;26.00;66.50
1091;DHT22;534;48.704;9.122;2023-09-08T20:00:01;26.00;66.50
1091;DHT22;534;48.704;9.122;2023-09-08T20:02:28;25.90;66.80
1091;DHT22;534;48.704;9.122;2023-09-08T20:04:55;25.80;66.80
1091;DHT22;534;48.704;9.122;2023-09-08T20:07:22;25.80;66.90
1091;DHT22;534;48.704;9.122;2023-09-08T20:09:50;25.80;66.70
1091;DHT22;534;48.704;9.122;2023-09-08T20:12:16;25.80;66.80
1091;DHT22;534;48.704;9.122;2023-09-08T20:14:44;25.80;66.80
1091;DHT22;534;48.704;9.122;2023-09-08T20:17:12;25.80;67.10
1091;DHT22;534;48.704;9.122;2023-09-08T20:19:38;25.70;67.40